Coyote Springs, Nevada
Current Conditions -  °F | °C
As of 8:58 PM on Wednesday 22 Oct 2014 (Local Time) from KINS Reporting Station
Clear Clear  
Wind Chill: 67°   Ceiling: Unl
Heat Index: 67°   Visibility: 10mi
Dew Point: 21°   Wind: 10mph
Humidity: 17%   Direction: 250°WSW
Pressure: 30.06"   Gusts: NA
Location:  36.91°N, 114.95°W
Report Text: KINS 230358Z AUTO 25009KT 10SM CLR 19/M06 A3006 RMK AO2 SLP149 T01931062
Loading
Personal Weather Stations






























Interactive Weather Map
Tropical Storm Tracking
New forecast layout! Learn more

10-Day Weather Forecast

Advertisements
Track Severe Weather on mobile